sensor_id;sensor_type;location;lat;lon;timestamp;P1;durP1;ratioP1;P2;durP2;ratioP2
10896;SDS011;5501;51.176;6.470;2022-12-07T00:04:30;17.15;;;9.68;;
10896;SDS011;5501;51.176;6.470;2022-12-07T00:09:31;17.65;;;10.45;;
10896;SDS011;5501;51.176;6.470;2022-12-07T00:14:32;17.45;;;10.70;;
10896;SDS011;5501;51.176;6.470;2022-12-07T00:19:34;15.10;;;9.35;;
10896;SDS011;5501;51.176;6.470;2022-12-07T00:24:35;20.10;;;11.45;;
10896;SDS011;5501;51.176;6.470;2022-12-07T00:29:36;18.33;;;10.82;;
10896;SDS011;5501;51.176;6.470;2022-12-07T00:34:38;23.15;;;12.77;;
10896;SDS011;5501;51.176;6.470;2022-12-07T00:39:39;20.00;;;13.68;;
10896;SDS011;5501;51.176;6.470;2022-12-07T00:44:40;23.70;;;13.07;;
10896;SDS011;5501;51.176;6.470;2022-12-07T00:49:42;20.17;;;14.20;;
10896;SDS011;5501;51.176;6.470;2022-12-07T00:54:43;32.05;;;16.10;;
10896;SDS011;5501;51.176;6.470;2022-12-07T00:59:44;23.58;;;14.77;;
10896;SDS011;5501;51.176;6.470;2022-12-07T01:04:46;24.60;;;14.43;;
10896;SDS011;5501;51.176;6.470;2022-12-07T01:09:47;22.65;;;15.05;;
10896;SDS011;5501;51.176;6.470;2022-12-07T01:14:48;22.98;;;14.63;;
10896;SDS011;5501;51.176;6.470;2022-12-07T01:19:50;20.00;;;14.05;;
10896;SDS011;5501;51.176;6.470;2022-12-07T01:24:51;21.45;;;14.52;;
10896;SDS011;5501;51.176;6.470;2022-12-07T01:29:52;22.25;;;14.27;;
10896;SDS011;5501;51.176;6.470;2022-12-07T01:34:54;29.33;;;15.55;;
10896;SDS011;5501;51.176;6.470;2022-12-07T01:39:55;20.90;;;14.20;;
10896;SDS011;5501;51.176;6.470;2022-12-07T01:50:16;19.77;;;13.60;;
10896;SDS011;5501;51.176;6.470;2022-12-07T01:55:18;19.15;;;13.07;;
10896;SDS011;5501;51.176;6.470;2022-12-07T02:00:19;25.23;;;14.27;;
10896;SDS011;5501;51.176;6.470;2022-12-07T02:05:21;20.15;;;12.85;;
10896;SDS011;5501;51.176;6.470;2022-12-07T02:10:24;25.30;;;13.38;;
10896;SDS011;5501;51.176;6.470;2022-12-07T02:15:28;19.80;;;12.27;;
10896;SDS011;5501;51.176;6.470;2022-12-07T02:20:57;18.07;;;12.47;;
10896;SDS011;5501;51.176;6.470;2022-12-07T02:31:14;23.15;;;12.80;;
10896;SDS011;5501;51.176;6.470;2022-12-07T02:36:17;18.15;;;12.68;;
10896;SDS011;5501;51.176;6.470;2022-12-07T02:41:21;18.58;;;12.55;;
10896;SDS011;5501;51.176;6.470;2022-12-07T02:46:25;22.42;;;12.55;;
10896;SDS011;5501;51.176;6.470;2022-12-07T02:51:31;19.15;;;10.85;;
10896;SDS011;5501;51.176;6.470;2022-12-07T02:56:39;17.73;;;11.50;;
10896;SDS011;5501;51.176;6.470;2022-12-07T03:06:57;16.98;;;11.40;;
10896;SDS011;5501;51.176;6.470;2022-12-07T03:12:05;15.20;;;11.48;;
10896;SDS011;5501;51.176;6.470;2022-12-07T03:17:13;13.77;;;10.05;;
10896;SDS011;5501;51.176;6.470;2022-12-07T03:22:15;15.25;;;10.40;;
10896;SDS011;5501;51.176;6.470;2022-12-07T03:27:21;13.75;;;9.70;;
10896;SDS011;5501;51.176;6.470;2022-12-07T03:37:36;14.73;;;9.50;;
10896;SDS011;5501;51.176;6.470;2022-12-07T03:42:40;15.70;;;9.38;;
10896;SDS011;5501;51.176;6.470;2022-12-07T03:47:58;11.93;;;9.07;;
10896;SDS011;5501;51.176;6.470;2022-12-07T03:53:44;19.95;;;9.85;;
10896;SDS011;5501;51.176;6.470;2022-12-07T03:58:26;14.57;;;8.82;;
10896;SDS011;5501;51.176;6.470;2022-12-07T04:03:28;12.93;;;8.75;;
10896;SDS011;5501;51.176;6.470;2022-12-07T04:08:29;11.98;;;8.70;;
10896;SDS011;5501;51.176;6.470;2022-12-07T04:13:31;12.80;;;9.02;;
10896;SDS011;5501;51.176;6.470;2022-12-07T04:18:52;13.52;;;8.52;;
10896;SDS011;5501;51.176;6.470;2022-12-07T04:23:53;13.68;;;8.75;;
10896;SDS011;5501;51.176;6.470;2022-12-07T04:28:55;11.70;;;8.50;;
10896;SDS011;5501;51.176;6.470;2022-12-07T04:33:56;12.00;;;8.35;;
10896;SDS011;5501;51.176;6.470;2022-12-07T04:38:57;13.23;;;8.55;;
10896;SDS011;5501;51.176;6.470;2022-12-07T04:44:03;20.38;;;9.30;;
10896;SDS011;5501;51.176;6.470;2022-12-07T04:49:05;14.00;;;9.00;;
10896;SDS011;5501;51.176;6.470;2022-12-07T04:54:06;9.57;;;7.95;;
10896;SDS011;5501;51.176;6.470;2022-12-07T04:59:08;9.23;;;7.68;;
10896;SDS011;5501;51.176;6.470;2022-12-07T05:04:10;11.35;;;7.95;;
10896;SDS011;5501;51.176;6.470;2022-12-07T05:09:11;14.85;;;8.30;;
10896;SDS011;5501;51.176;6.470;2022-12-07T05:14:14;13.80;;;7.82;;
10896;SDS011;5501;51.176;6.470;2022-12-07T05:19:15;10.68;;;7.85;;
10896;SDS011;5501;51.176;6.470;2022-12-07T05:24:17;13.55;;;7.95;;
10896;SDS011;5501;51.176;6.470;2022-12-07T05:29:18;13.20;;;7.95;;
10896;SDS011;5501;51.176;6.470;2022-12-07T05:34:20;9.77;;;7.90;;
10896;SDS011;5501;51.176;6.470;2022-12-07T05:39:21;11.63;;;8.48;;
10896;SDS011;5501;51.176;6.470;2022-12-07T05:44:22;13.75;;;8.35;;
10896;SDS011;5501;51.176;6.470;2022-12-07T05:49:24;14.55;;;8.60;;
10896;SDS011;5501;51.176;6.470;2022-12-07T05:54:25;14.35;;;8.57;;
10896;SDS011;5501;51.176;6.470;2022-12-07T05:59:26;14.65;;;9.10;;
10896;SDS011;5501;51.176;6.470;2022-12-07T06:04:30;10.98;;;8.20;;
10896;SDS011;5501;51.176;6.470;2022-12-07T06:09:33;13.10;;;7.57;;
10896;SDS011;5501;51.176;6.470;2022-12-07T06:14:34;10.40;;;7.55;;
10896;SDS011;5501;51.176;6.470;2022-12-07T06:19:36;12.30;;;7.40;;
10896;SDS011;5501;51.176;6.470;2022-12-07T06:24:37;10.63;;;7.15;;
10896;SDS011;5501;51.176;6.470;2022-12-07T06:29:39;11.52;;;7.63;;
10896;SDS011;5501;51.176;6.470;2022-12-07T06:34:40;14.23;;;7.95;;
10896;SDS011;5501;51.176;6.470;2022-12-07T06:39:42;10.82;;;6.65;;
10896;SDS011;5501;51.176;6.470;2022-12-07T06:44:43;16.98;;;6.57;;
10896;SDS011;5501;51.176;6.470;2022-12-07T06:49:44;15.15;;;7.10;;
10896;SDS011;5501;51.176;6.470;2022-12-07T06:54:46;8.73;;;5.63;;
10896;SDS011;5501;51.176;6.470;2022-12-07T06:59:47;10.15;;;6.28;;
10896;SDS011;5501;51.176;6.470;2022-12-07T07:04:48;10.65;;;5.43;;
10896;SDS011;5501;51.176;6.470;2022-12-07T07:09:50;8.88;;;5.03;;
10896;SDS011;5501;51.176;6.470;2022-12-07T07:14:51;9.80;;;5.80;;
10896;SDS011;5501;51.176;6.470;2022-12-07T07:19:52;13.88;;;5.75;;
10896;SDS011;5501;51.176;6.470;2022-12-07T07:24:54;7.25;;;5.43;;
10896;SDS011;5501;51.176;6.470;2022-12-07T07:29:55;6.93;;;5.40;;
10896;SDS011;5501;51.176;6.470;2022-12-07T07:34:56;7.50;;;5.88;;
10896;SDS011;5501;51.176;6.470;2022-12-07T07:39:58;9.88;;;5.50;;
10896;SDS011;5501;51.176;6.470;2022-12-07T07:44:59;9.82;;;6.28;;
10896;SDS011;5501;51.176;6.470;2022-12-07T07:50:01;9.35;;;6.20;;
10896;SDS011;5501;51.176;6.470;2022-12-07T07:55:03;9.63;;;6.50;;
10896;SDS011;5501;51.176;6.470;2022-12-07T08:00:05;11.52;;;6.50;;
10896;SDS011;5501;51.176;6.470;2022-12-07T08:05:12;12.73;;;8.02;;
10896;SDS011;5501;51.176;6.470;2022-12-07T08:10:14;14.85;;;8.70;;
10896;SDS011;5501;51.176;6.470;2022-12-07T08:15:15;16.70;;;9.40;;
10896;SDS011;5501;51.176;6.470;2022-12-07T08:20:16;14.25;;;9.85;;
10896;SDS011;5501;51.176;6.470;2022-12-07T08:25:18;20.73;;;11.48;;
10896;SDS011;5501;51.176;6.470;2022-12-07T08:30:19;19.17;;;11.48;;
10896;SDS011;5501;51.176;6.470;2022-12-07T08:35:21;18.52;;;11.50;;
10896;SDS011;5501;51.176;6.470;2022-12-07T08:40:23;16.20;;;11.77;;
10896;SDS011;5501;51.176;6.470;2022-12-07T08:45:24;18.10;;;12.25;;
10896;SDS011;5501;51.176;6.470;2022-12-07T08:50:28;20.65;;;12.70;;
10896;SDS011;5501;51.176;6.470;2022-12-07T08:55:29;20.55;;;11.05;;
10896;SDS011;5501;51.176;6.470;2022-12-07T09:00:31;16.80;;;10.48;;
10896;SDS011;5501;51.176;6.470;2022-12-07T09:05:32;14.77;;;9.45;;
10896;SDS011;5501;51.176;6.470;2022-12-07T09:10:34;17.58;;;11.68;;
10896;SDS011;5501;51.176;6.470;2022-12-07T09:15:36;18.40;;;11.55;;
10896;SDS011;5501;51.176;6.470;2022-12-07T09:20:37;18.90;;;11.43;;
10896;SDS011;5501;51.176;6.470;2022-12-07T09:25:38;19.02;;;10.55;;
10896;SDS011;5501;51.176;6.470;2022-12-07T09:30:45;17.20;;;9.75;;
10896;SDS011;5501;51.176;6.470;2022-12-07T09:36:06;15.15;;;9.75;;
10896;SDS011;5501;51.176;6.470;2022-12-07T09:41:07;22.08;;;11.05;;
10896;SDS011;5501;51.176;6.470;2022-12-07T09:46:11;15.63;;;10.55;;
10896;SDS011;5501;51.176;6.470;2022-12-07T09:51:16;16.83;;;10.93;;
10896;SDS011;5501;51.176;6.470;2022-12-07T09:56:23;17.10;;;10.40;;
10896;SDS011;5501;51.176;6.470;2022-12-07T10:01:27;20.95;;;11.70;;
10896;SDS011;5501;51.176;6.470;2022-12-07T10:06:29;23.88;;;12.48;;
10896;SDS011;5501;51.176;6.470;2022-12-07T10:11:30;20.77;;;11.48;;
10896;SDS011;5501;51.176;6.470;2022-12-07T10:21:33;18.05;;;9.88;;
10896;SDS011;5501;51.176;6.470;2022-12-07T10:26:35;17.40;;;10.27;;
10896;SDS011;5501;51.176;6.470;2022-12-07T10:31:38;17.60;;;9.35;;
10896;SDS011;5501;51.176;6.470;2022-12-07T10:36:40;14.60;;;9.43;;
10896;SDS011;5501;51.176;6.470;2022-12-07T10:47:05;13.35;;;9.10;;
10896;SDS011;5501;51.176;6.470;2022-12-07T10:57:31;19.40;;;10.88;;
10896;SDS011;5501;51.176;6.470;2022-12-07T11:07:49;23.10;;;12.32;;
10896;SDS011;5501;51.176;6.470;2022-12-07T11:34:07;13.32;;;8.38;;
10896;SDS011;5501;51.176;6.470;2022-12-07T11:44:23;10.75;;;6.25;;
10896;SDS011;5501;51.176;6.470;2022-12-07T11:49:37;12.85;;;5.00;;
10896;SDS011;5501;51.176;6.470;2022-12-07T11:54:40;8.25;;;4.13;;
10896;SDS011;5501;51.176;6.470;2022-12-07T11:59:45;11.90;;;5.15;;
10896;SDS011;5501;51.176;6.470;2022-12-07T12:10:01;8.15;;;4.38;;
10896;SDS011;5501;51.176;6.470;2022-12-07T12:15:23;8.52;;;4.15;;
10896;SDS011;5501;51.176;6.470;2022-12-07T12:20:29;6.85;;;3.40;;
10896;SDS011;5501;51.176;6.470;2022-12-07T12:25:35;8.48;;;3.63;;
10896;SDS011;5501;51.176;6.470;2022-12-07T12:30:38;6.90;;;3.70;;
10896;SDS011;5501;51.176;6.470;2022-12-07T12:35:40;5.57;;;3.78;;
10896;SDS011;5501;51.176;6.470;2022-12-07T12:40:42;11.35;;;4.15;;
10896;SDS011;5501;51.176;6.470;2022-12-07T12:51:35;4.10;;;3.13;;
10896;SDS011;5501;51.176;6.470;2022-12-07T12:56:20;5.43;;;3.53;;
10896;SDS011;5501;51.176;6.470;2022-12-07T13:06:34;6.90;;;3.38;;
10896;SDS011;5501;51.176;6.470;2022-12-07T13:11:41;7.78;;;3.00;;
10896;SDS011;5501;51.176;6.470;2022-12-07T13:16:43;9.27;;;3.78;;
10896;SDS011;5501;51.176;6.470;2022-12-07T13:21:45;7.85;;;3.45;;
10896;SDS011;5501;51.176;6.470;2022-12-07T13:26:46;8.73;;;3.58;;
10896;SDS011;5501;51.176;6.470;2022-12-07T13:31:54;6.35;;;3.50;;
10896;SDS011;5501;51.176;6.470;2022-12-07T13:36:56;4.32;;;3.30;;
10896;SDS011;5501;51.176;6.470;2022-12-07T13:41:58;6.32;;;3.60;;
10896;SDS011;5501;51.176;6.470;2022-12-07T13:52:20;8.30;;;2.40;;
10896;SDS011;5501;51.176;6.470;2022-12-07T13:57:22;7.07;;;2.75;;
10896;SDS011;5501;51.176;6.470;2022-12-07T14:02:27;5.40;;;2.60;;
10896;SDS011;5501;51.176;6.470;2022-12-07T14:07:35;5.72;;;3.35;;
10896;SDS011;5501;51.176;6.470;2022-12-07T14:12:37;8.05;;;3.90;;
10896;SDS011;5501;51.176;6.470;2022-12-07T14:17:48;5.43;;;3.70;;
10896;SDS011;5501;51.176;6.470;2022-12-07T14:22:54;8.73;;;3.28;;
10896;SDS011;5501;51.176;6.470;2022-12-07T14:27:57;8.60;;;3.35;;
10896;SDS011;5501;51.176;6.470;2022-12-07T14:33:00;5.25;;;3.08;;
10896;SDS011;5501;51.176;6.470;2022-12-07T14:38:01;5.72;;;3.00;;
10896;SDS011;5501;51.176;6.470;2022-12-07T14:43:04;8.15;;;3.05;;
10896;SDS011;5501;51.176;6.470;2022-12-07T14:48:13;5.72;;;2.67;;
10896;SDS011;5501;51.176;6.470;2022-12-07T14:53:37;9.07;;;3.20;;
10896;SDS011;5501;51.176;6.470;2022-12-07T14:58:40;7.95;;;2.40;;
10896;SDS011;5501;51.176;6.470;2022-12-07T15:03:41;8.20;;;2.78;;
10896;SDS011;5501;51.176;6.470;2022-12-07T15:08:43;5.75;;;2.83;;
10896;SDS011;5501;51.176;6.470;2022-12-07T15:13:48;4.95;;;2.45;;
10896;SDS011;5501;51.176;6.470;2022-12-07T15:19:10;8.52;;;3.10;;
10896;SDS011;5501;51.176;6.470;2022-12-07T15:24:29;7.35;;;3.67;;
10896;SDS011;5501;51.176;6.470;2022-12-07T15:29:30;6.40;;;3.10;;
10896;SDS011;5501;51.176;6.470;2022-12-07T15:34:32;4.47;;;2.60;;
10896;SDS011;5501;51.176;6.470;2022-12-07T15:39:40;6.07;;;3.40;;
10896;SDS011;5501;51.176;6.470;2022-12-07T15:44:42;5.70;;;3.22;;
10896;SDS011;5501;51.176;6.470;2022-12-07T15:50:03;5.07;;;2.90;;
10896;SDS011;5501;51.176;6.470;2022-12-07T15:55:05;8.05;;;4.32;;
10896;SDS011;5501;51.176;6.470;2022-12-07T16:00:07;7.78;;;3.47;;
10896;SDS011;5501;51.176;6.470;2022-12-07T16:05:09;12.05;;;4.90;;
10896;SDS011;5501;51.176;6.470;2022-12-07T16:10:11;6.63;;;4.53;;
10896;SDS011;5501;51.176;6.470;2022-12-07T16:15:12;11.20;;;5.07;;
10896;SDS011;5501;51.176;6.470;2022-12-07T16:20:13;8.80;;;4.97;;
10896;SDS011;5501;51.176;6.470;2022-12-07T16:25:15;7.93;;;5.90;;
10896;SDS011;5501;51.176;6.470;2022-12-07T16:30:16;10.80;;;5.30;;
10896;SDS011;5501;51.176;6.470;2022-12-07T16:35:18;9.38;;;5.47;;
10896;SDS011;5501;51.176;6.470;2022-12-07T16:40:19;16.02;;;6.15;;
10896;SDS011;5501;51.176;6.470;2022-12-07T16:45:20;11.77;;;6.80;;
10896;SDS011;5501;51.176;6.470;2022-12-07T16:50:22;13.93;;;7.00;;
10896;SDS011;5501;51.176;6.470;2022-12-07T16:55:23;12.82;;;6.93;;
10896;SDS011;5501;51.176;6.470;2022-12-07T17:00:24;9.95;;;7.28;;
10896;SDS011;5501;51.176;6.470;2022-12-07T17:05:26;10.63;;;7.85;;
10896;SDS011;5501;51.176;6.470;2022-12-07T17:10:29;11.75;;;7.75;;
10896;SDS011;5501;51.176;6.470;2022-12-07T17:15:30;9.90;;;7.07;;
10896;SDS011;5501;51.176;6.470;2022-12-07T17:20:32;12.82;;;8.18;;
10896;SDS011;5501;51.176;6.470;2022-12-07T17:25:33;10.45;;;7.63;;
10896;SDS011;5501;51.176;6.470;2022-12-07T17:30:34;10.60;;;8.07;;
10896;SDS011;5501;51.176;6.470;2022-12-07T17:35:36;18.40;;;8.38;;
10896;SDS011;5501;51.176;6.470;2022-12-07T17:40:37;11.57;;;8.23;;
10896;SDS011;5501;51.176;6.470;2022-12-07T17:45:39;13.07;;;9.52;;
10896;SDS011;5501;51.176;6.470;2022-12-07T17:50:40;15.90;;;9.30;;
10896;SDS011;5501;51.176;6.470;2022-12-07T17:56:00;19.55;;;9.57;;
10896;SDS011;5501;51.176;6.470;2022-12-07T18:01:21;13.07;;;9.50;;
10896;SDS011;5501;51.176;6.470;2022-12-07T18:06:25;14.02;;;8.85;;
10896;SDS011;5501;51.176;6.470;2022-12-07T18:11:26;14.60;;;9.23;;
10896;SDS011;5501;51.176;6.470;2022-12-07T18:16:28;11.13;;;9.13;;
10896;SDS011;5501;51.176;6.470;2022-12-07T18:21:30;15.65;;;9.73;;
10896;SDS011;5501;51.176;6.470;2022-12-07T18:26:32;13.70;;;9.20;;
10896;SDS011;5501;51.176;6.470;2022-12-07T18:31:35;13.73;;;9.70;;
10896;SDS011;5501;51.176;6.470;2022-12-07T18:36:38;17.13;;;9.52;;
10896;SDS011;5501;51.176;6.470;2022-12-07T18:41:40;21.40;;;9.68;;
10896;SDS011;5501;51.176;6.470;2022-12-07T18:46:41;20.05;;;11.07;;
10896;SDS011;5501;51.176;6.470;2022-12-07T18:51:43;18.92;;;10.93;;
10896;SDS011;5501;51.176;6.470;2022-12-07T18:56:45;14.10;;;10.45;;
10896;SDS011;5501;51.176;6.470;2022-12-07T19:01:48;24.27;;;10.68;;
10896;SDS011;5501;51.176;6.470;2022-12-07T19:06:49;15.63;;;9.80;;
10896;SDS011;5501;51.176;6.470;2022-12-07T19:11:51;19.25;;;10.98;;
10896;SDS011;5501;51.176;6.470;2022-12-07T19:16:54;15.82;;;10.35;;
10896;SDS011;5501;51.176;6.470;2022-12-07T19:21:55;18.55;;;10.60;;
10896;SDS011;5501;51.176;6.470;2022-12-07T19:26:57;16.80;;;10.95;;
10896;SDS011;5501;51.176;6.470;2022-12-07T19:31:59;12.98;;;9.48;;
10896;SDS011;5501;51.176;6.470;2022-12-07T19:37:01;16.75;;;10.20;;
10896;SDS011;5501;51.176;6.470;2022-12-07T19:42:02;16.92;;;10.02;;
10896;SDS011;5501;51.176;6.470;2022-12-07T19:47:04;17.33;;;10.60;;
10896;SDS011;5501;51.176;6.470;2022-12-07T19:52:06;21.75;;;11.57;;
10896;SDS011;5501;51.176;6.470;2022-12-07T19:57:08;15.70;;;9.98;;
10896;SDS011;5501;51.176;6.470;2022-12-07T20:02:15;15.45;;;10.00;;
10896;SDS011;5501;51.176;6.470;2022-12-07T20:07:16;13.88;;;9.98;;
10896;SDS011;5501;51.176;6.470;2022-12-07T20:12:17;18.52;;;11.93;;
10896;SDS011;5501;51.176;6.470;2022-12-07T20:17:37;16.27;;;9.65;;
10896;SDS011;5501;51.176;6.470;2022-12-07T20:22:39;19.38;;;11.18;;
10896;SDS011;5501;51.176;6.470;2022-12-07T20:27:40;19.42;;;11.10;;
10896;SDS011;5501;51.176;6.470;2022-12-07T20:32:42;18.63;;;10.77;;
10896;SDS011;5501;51.176;6.470;2022-12-07T20:37:43;15.55;;;10.80;;
10896;SDS011;5501;51.176;6.470;2022-12-07T20:42:44;19.05;;;11.43;;
10896;SDS011;5501;51.176;6.470;2022-12-07T20:47:46;16.80;;;10.05;;
10896;SDS011;5501;51.176;6.470;2022-12-07T20:52:47;16.27;;;10.63;;
10896;SDS011;5501;51.176;6.470;2022-12-07T20:57:48;21.65;;;10.80;;
10896;SDS011;5501;51.176;6.470;2022-12-07T21:02:49;15.18;;;9.70;;
10896;SDS011;5501;51.176;6.470;2022-12-07T21:07:51;15.35;;;10.95;;
10896;SDS011;5501;51.176;6.470;2022-12-07T21:12:52;18.70;;;10.10;;
10896;SDS011;5501;51.176;6.470;2022-12-07T21:17:56;17.67;;;10.80;;
10896;SDS011;5501;51.176;6.470;2022-12-07T21:23:02;18.27;;;11.07;;
10896;SDS011;5501;51.176;6.470;2022-12-07T21:28:04;28.73;;;11.85;;
10896;SDS011;5501;51.176;6.470;2022-12-07T21:33:05;20.55;;;11.23;;
10896;SDS011;5501;51.176;6.470;2022-12-07T21:38:06;18.60;;;9.60;;
10896;SDS011;5501;51.176;6.470;2022-12-07T21:43:08;19.38;;;10.80;;
10896;SDS011;5501;51.176;6.470;2022-12-07T21:48:09;19.27;;;10.27;;
10896;SDS011;5501;51.176;6.470;2022-12-07T21:53:11;16.55;;;10.68;;
10896;SDS011;5501;51.176;6.470;2022-12-07T21:58:12;16.95;;;10.32;;
10896;SDS011;5501;51.176;6.470;2022-12-07T22:03:13;15.93;;;10.60;;
10896;SDS011;5501;51.176;6.470;2022-12-07T22:08:15;14.13;;;9.95;;
10896;SDS011;5501;51.176;6.470;2022-12-07T22:13:16;16.73;;;10.35;;
10896;SDS011;5501;51.176;6.470;2022-12-07T22:18:18;19.05;;;11.52;;
10896;SDS011;5501;51.176;6.470;2022-12-07T22:23:19;16.88;;;10.35;;
10896;SDS011;5501;51.176;6.470;2022-12-07T22:28:21;17.23;;;9.20;;
10896;SDS011;5501;51.176;6.470;2022-12-07T22:33:22;15.25;;;9.73;;
10896;SDS011;5501;51.176;6.470;2022-12-07T22:38:23;17.25;;;9.82;;
10896;SDS011;5501;51.176;6.470;2022-12-07T22:43:25;16.92;;;9.65;;
10896;SDS011;5501;51.176;6.470;2022-12-07T22:48:26;16.30;;;9.93;;
10896;SDS011;5501;51.176;6.470;2022-12-07T22:53:28;18.80;;;10.15;;
10896;SDS011;5501;51.176;6.470;2022-12-07T22:58:29;18.50;;;10.05;;
10896;SDS011;5501;51.176;6.470;2022-12-07T23:03:32;16.63;;;10.40;;
10896;SDS011;5501;51.176;6.470;2022-12-07T23:08:33;19.42;;;10.65;;
10896;SDS011;5501;51.176;6.470;2022-12-07T23:13:35;18.73;;;10.23;;
10896;SDS011;5501;51.176;6.470;2022-12-07T23:18:38;15.05;;;9.82;;
10896;SDS011;5501;51.176;6.470;2022-12-07T23:23:40;15.80;;;10.55;;
10896;SDS011;5501;51.176;6.470;2022-12-07T23:28:41;17.77;;;10.82;;
10896;SDS011;5501;51.176;6.470;2022-12-07T23:33:42;14.85;;;9.93;;
10896;SDS011;5501;51.176;6.470;2022-12-07T23:38:44;18.13;;;9.48;;
10896;SDS011;5501;51.176;6.470;2022-12-07T23:43:46;20.98;;;10.10;;
10896;SDS011;5501;51.176;6.470;2022-12-07T23:48:48;14.18;;;9.80;;
10896;SDS011;5501;51.176;6.470;2022-12-07T23:53:50;13.93;;;8.65;;
10896;SDS011;5501;51.176;6.470;2022-12-07T23:58:51;15.80;;;9.30;;
